Time;durP1;ratioP1;P1;durP2;ratioP2;P2;SDS_P1;SDS_P2;PMS_P1;PMS_P2;Temp;Humidity;BMP_temperature;BMP_pressure;BME280_temperature;BME280_humidity;BME280_pressure;Samples;Min_cycle;Max_cycle;Signal;HPM_P1;HPM_P2
2021/05/24 00:00:01;;;;;;;2.42;0.80;;;7.60;99.90;;;;;;1880469;76;21019;-72
2021/05/24 00:02:27;;;;;;;2.55;0.80;;;7.50;99.90;;;;;;1880617;76;21074;-71
2021/05/24 00:04:53;;;;;;;2.35;0.57;;;7.50;99.90;;;;;;1880563;76;21077;-73
2021/05/24 00:07:19;;;;;;;3.90;1.05;;;7.50;99.90;;;;;;1880511;76;21074;-73
2021/05/24 00:09:46;;;;;;;2.20;0.90;;;7.40;99.90;;;;;;1880672;76;21129;-72
2021/05/24 00:12:12;;;;;;;3.45;0.72;;;7.40;99.90;;;;;;1880537;76;21086;-71
2021/05/24 00:14:40;;;;;;;1.72;0.80;;;7.30;99.90;;;;;;1880618;76;21502;-71
2021/05/24 00:17:06;;;;;;;1.02;0.70;;;7.30;99.90;;;;;;1880609;76;21125;-71
2021/05/24 00:19:32;;;;;;;1.67;0.60;;;7.40;99.90;;;;;;1880474;76;21074;-72
2021/05/24 00:21:58;;;;;;;5.45;0.93;;;7.30;99.90;;;;;;1880663;76;21149;-72
2021/05/24 00:24:24;;;;;;;1.20;0.80;;;7.30;99.90;;;;;;1880801;76;21107;-71
2021/05/24 00:26:50;;;;;;;2.37;0.80;;;7.30;99.90;;;;;;1881121;76;21082;-71
2021/05/24 00:29:19;;;;;;;1.47;0.90;;;7.30;99.90;;;;;;1881073;76;21079;-73
2021/05/24 00:31:44;;;;;;;0.53;0.53;;;7.30;99.90;;;;;;1880957;76;21099;-67
2021/05/24 00:34:10;;;;;;;2.75;0.80;;;7.20;99.90;;;;;;1883539;76;21125;-68
2021/05/24 00:36:37;;;;;;;0.80;0.80;;;7.10;99.90;;;;;;1883397;76;21180;-67
2021/05/24 00:39:07;;;;;;;0.78;0.65;;;7.00;99.90;;;;;;1883482;76;21102;-68
2021/05/24 00:41:30;;;;;;;1.52;0.50;;;7.00;99.90;;;;;;1880961;76;21611;-71
2021/05/24 00:43:57;;;;;;;1.00;0.53;;;7.10;99.90;;;;;;1880597;76;21075;-72
2021/05/24 00:46:23;;;;;;;2.87;0.50;;;7.10;99.90;;;;;;1880436;76;21144;-72
2021/05/24 00:48:49;;;;;;;1.40;0.70;;;7.00;99.90;;;;;;1880545;76;21078;-72
2021/05/24 00:51:15;;;;;;;1.70;0.90;;;7.00;99.90;;;;;;1880437;76;21078;-71
2021/05/24 00:53:41;;;;;;;2.85;1.20;;;7.00;99.90;;;;;;1880407;76;21039;-73
2021/05/24 00:56:07;;;;;;;0.70;0.60;;;7.00;99.90;;;;;;1880553;76;21090;-71
2021/05/24 00:58:33;;;;;;;9.45;0.90;;;7.00;99.90;;;;;;1880627;76;21078;-71
2021/05/24 01:01:00;;;;;;;1.35;0.90;;;7.00;99.90;;;;;;1880670;76;21078;-72
2021/05/24 01:03:27;;;;;;;0.85;0.70;;;7.00;99.90;;;;;;1880637;76;21074;-72
2021/05/24 01:05:53;;;;;;;1.35;1.05;;;7.00;99.90;;;;;;1880408;76;21083;-72
2021/05/24 01:08:19;;;;;;;3.85;1.10;;;7.00;99.90;;;;;;1880562;76;21051;-72
2021/05/24 01:10:45;;;;;;;1.15;0.90;;;6.90;99.90;;;;;;1880484;76;21141;-72
2021/05/24 01:13:13;;;;;;;0.70;0.70;;;6.90;99.90;;;;;;1880500;76;21103;-73
2021/05/24 01:15:39;;;;;;;1.92;0.68;;;6.90;99.90;;;;;;1880494;76;21082;-72
2021/05/24 01:18:05;;;;;;;1.07;0.90;;;6.90;99.90;;;;;;1880606;76;21102;-72
2021/05/24 01:20:31;;;;;;;2.27;1.07;;;6.90;99.90;;;;;;1880540;76;21136;-72
2021/05/24 01:25:31;;;;;;;1.50;0.90;;;6.90;99.90;;;;;;1880494;76;21106;-73
2021/05/24 01:27:57;;;;;;;1.80;0.80;;;6.90;99.90;;;;;;1880548;76;21155;-72
2021/05/24 01:30:23;;;;;;;1.02;0.85;;;6.90;99.90;;;;;;1880533;76;21078;-72
2021/05/24 01:32:50;;;;;;;0.78;0.72;;;6.90;99.90;;;;;;1880561;76;21074;-72
2021/05/24 01:35:16;;;;;;;0.80;0.70;;;6.90;99.90;;;;;;1880393;76;21191;-72
2021/05/24 01:37:42;;;;;;;0.80;0.80;;;6.90;99.90;;;;;;1880527;76;21047;-72
2021/05/24 01:40:08;;;;;;;1.20;0.90;;;6.90;99.90;;;;;;1880394;76;21089;-72
2021/05/24 01:42:34;;;;;;;2.72;0.95;;;6.90;99.90;;;;;;1880498;76;21081;-73
2021/05/24 01:45:00;;;;;;;1.85;0.78;;;6.90;99.90;;;;;;1880473;76;21104;-72
2021/05/24 01:47:26;;;;;;;3.10;1.10;;;6.90;99.90;;;;;;1880351;76;21202;-72
2021/05/24 01:49:53;;;;;;;2.30;0.95;;;6.90;99.90;;;;;;1880586;76;21144;-72
2021/05/24 01:52:19;;;;;;;0.88;0.82;;;6.90;99.90;;;;;;1880459;76;21059;-72
2021/05/24 01:54:45;;;;;;;6.50;1.02;;;6.90;99.90;;;;;;1880508;76;21065;-72
2021/05/24 01:57:11;;;;;;;4.92;1.05;;;6.90;99.90;;;;;;1880476;76;21090;-71
2021/05/24 01:59:37;;;;;;;0.82;0.70;;;6.90;99.90;;;;;;1880516;76;21078;-72
2021/05/24 02:02:03;;;;;;;2.72;1.15;;;6.80;99.90;;;;;;1880414;76;21151;-72
2021/05/24 02:04:29;;;;;;;1.70;0.78;;;6.80;99.90;;;;;;1880519;76;21070;-73
2021/05/24 02:06:55;;;;;;;1.05;0.60;;;6.80;99.90;;;;;;1880412;76;21047;-72
2021/05/24 02:09:22;;;;;;;1.07;0.93;;;6.70;99.90;;;;;;1880428;76;21015;-72
2021/05/24 02:11:48;;;;;;;1.82;0.80;;;6.70;99.90;;;;;;1880498;76;21083;-71
2021/05/24 02:14:14;;;;;;;3.00;1.02;;;6.70;99.90;;;;;;1880506;76;21047;-72
2021/05/24 02:16:40;;;;;;;0.70;0.70;;;6.70;99.90;;;;;;1880387;76;21082;-73
2021/05/24 02:19:06;;;;;;;2.90;1.37;;;6.70;99.90;;;;;;1880462;76;21184;-73
2021/05/24 02:21:32;;;;;;;1.82;1.12;;;6.60;99.90;;;;;;1880535;76;21086;-73
2021/05/24 02:23:58;;;;;;;1.95;1.07;;;6.50;99.90;;;;;;1880480;76;21183;-74
2021/05/24 02:26:25;;;;;;;2.15;1.17;;;6.60;99.90;;;;;;1880494;76;21535;-72
2021/05/24 02:28:51;;;;;;;2.95;1.30;;;6.60;99.90;;;;;;1880339;76;21495;-73
2021/05/24 02:31:17;;;;;;;1.17;0.78;;;6.60;99.90;;;;;;1880655;76;21487;-73
2021/05/24 02:33:43;;;;;;;1.90;0.80;;;6.60;99.90;;;;;;1880368;76;21070;-71
2021/05/24 02:36:09;;;;;;;1.25;1.07;;;6.70;99.90;;;;;;1880399;76;21086;-71
2021/05/24 02:38:35;;;;;;;1.55;0.72;;;6.70;99.90;;;;;;1880478;76;21074;-72
2021/05/24 02:41:01;;;;;;;1.22;0.90;;;6.70;99.90;;;;;;1880539;76;21051;-73
2021/05/24 02:43:27;;;;;;;1.22;1.07;;;6.70;99.90;;;;;;1880374;76;21115;-74
2021/05/24 02:45:53;;;;;;;1.32;0.75;;;6.70;99.90;;;;;;1880484;76;21082;-73
2021/05/24 02:48:20;;;;;;;0.72;0.72;;;6.70;99.90;;;;;;1880573;76;21078;-73
2021/05/24 02:50:46;;;;;;;2.42;1.10;;;6.70;99.90;;;;;;1880551;76;21210;-73
2021/05/24 02:53:12;;;;;;;1.22;0.90;;;6.80;99.90;;;;;;1880353;76;21580;-72
2021/05/24 02:55:38;;;;;;;1.75;1.10;;;6.70;99.90;;;;;;1880453;76;21451;-73
2021/05/24 02:58:05;;;;;;;0.75;0.75;;;6.60;99.90;;;;;;1880495;76;21075;-72
2021/05/24 03:00:32;;;;;;;1.90;1.02;;;6.70;99.90;;;;;;1880483;76;21503;-73
2021/05/24 03:02:58;;;;;;;1.85;0.80;;;6.70;99.90;;;;;;1880538;76;21156;-72
2021/05/24 03:05:24;;;;;;;2.87;1.02;;;6.80;99.90;;;;;;1880669;76;21058;-73
2021/05/24 03:07:50;;;;;;;2.55;0.90;;;6.70;99.90;;;;;;1880637;76;21066;-72
2021/05/24 03:10:17;;;;;;;0.95;0.65;;;6.70;99.90;;;;;;1880568;76;21121;-73
2021/05/24 03:12:43;;;;;;;0.90;0.90;;;6.70;99.90;;;;;;1880475;76;21082;-73
2021/05/24 03:15:09;;;;;;;2.22;1.07;;;6.60;99.90;;;;;;1880889;76;21090;-73
2021/05/24 03:17:35;;;;;;;2.95;0.98;;;6.60;99.90;;;;;;1880746;76;21595;-73
2021/05/24 03:20:01;;;;;;;2.55;0.95;;;6.60;99.90;;;;;;1880869;76;21419;-73
2021/05/24 03:22:27;;;;;;;1.95;0.93;;;6.70;99.90;;;;;;1880693;76;21559;-73
2021/05/24 03:24:53;;;;;;;1.07;0.98;;;6.70;99.90;;;;;;1880854;76;21584;-73
2021/05/24 03:27:19;;;;;;;1.55;1.07;;;6.80;99.90;;;;;;1880678;76;21169;-73
2021/05/24 03:29:47;;;;;;;0.98;0.88;;;6.70;99.90;;;;;;1880873;76;21074;-73
2021/05/24 03:32:13;;;;;;;1.57;0.93;;;6.70;99.90;;;;;;1880687;76;21107;-73
2021/05/24 03:34:39;;;;;;;2.52;1.12;;;6.70;99.90;;;;;;1880886;76;21527;-73
2021/05/24 03:37:05;;;;;;;2.17;1.00;;;6.70;99.90;;;;;;1880761;76;21478;-73
2021/05/24 03:39:31;;;;;;;0.80;0.80;;;6.70;99.90;;;;;;1880885;76;21490;-73
2021/05/24 03:41:57;;;;;;;1.35;1.15;;;6.70;99.90;;;;;;1880771;76;21545;-73
2021/05/24 03:44:23;;;;;;;2.20;1.10;;;6.70;99.90;;;;;;1880868;76;21070;-73
2021/05/24 03:46:50;;;;;;;1.47;0.70;;;6.70;99.90;;;;;;1880700;76;21070;-72
2021/05/24 03:49:16;;;;;;;1.05;0.93;;;6.70;99.90;;;;;;1880843;76;21043;-73
2021/05/24 03:51:42;;;;;;;2.45;1.20;;;6.70;99.90;;;;;;1880780;76;21070;-73
2021/05/24 03:54:08;;;;;;;1.12;0.82;;;6.80;99.90;;;;;;1880792;76;21074;-72
2021/05/24 03:56:34;;;;;;;1.02;0.98;;;6.80;99.90;;;;;;1880870;76;21074;-73
2021/05/24 03:59:00;;;;;;;1.65;0.95;;;6.80;99.90;;;;;;1880878;76;21132;-73
2021/05/24 04:01:26;;;;;;;3.20;1.20;;;6.80;99.90;;;;;;1880866;76;21075;-73
2021/05/24 04:03:55;;;;;;;1.00;0.90;;;6.70;99.90;;;;;;1880789;76;21015;-73
2021/05/24 04:06:20;;;;;;;3.12;1.20;;;6.80;99.90;;;;;;1880605;76;21111;-73
2021/05/24 04:08:47;;;;;;;0.80;0.80;;;6.80;99.90;;;;;;1880818;76;21144;-75
2021/05/24 04:11:14;;;;;;;5.33;1.20;;;6.80;99.90;;;;;;1880817;76;21137;-73
2021/05/24 04:13:45;;;;;;;2.27;1.00;;;6.90;99.90;;;;;;1880808;76;21152;-73
2021/05/24 04:16:08;;;;;;;0.90;0.90;;;6.90;99.90;;;;;;1880035;76;21122;-74
2021/05/24 04:18:35;;;;;;;1.67;0.85;;;6.90;99.90;;;;;;1880808;76;21078;-73
2021/05/24 04:21:05;;;;;;;1.27;0.95;;;6.90;99.90;;;;;;1880884;76;21159;-73
2021/05/24 04:23:29;;;;;;;1.10;0.98;;;7.00;99.90;;;;;;1880142;76;21103;-72
2021/05/24 04:25:55;;;;;;;0.88;0.88;;;7.00;99.90;;;;;;1880941;76;21071;-73
2021/05/24 04:28:21;;;;;;;1.42;0.90;;;7.10;99.90;;;;;;1880834;76;21076;-73
2021/05/24 04:30:47;;;;;;;1.00;0.90;;;7.10;99.90;;;;;;1880927;76;21216;-72
2021/05/24 04:33:13;;;;;;;1.40;0.88;;;7.10;99.90;;;;;;1880830;76;21083;-73
2021/05/24 04:35:40;;;;;;;1.45;0.85;;;7.20;99.90;;;;;;1880776;76;21160;-72
2021/05/24 04:38:06;;;;;;;1.20;1.00;;;7.20;99.90;;;;;;1880830;76;21086;-72
2021/05/24 04:40:32;;;;;;;0.72;0.72;;;7.30;99.90;;;;;;1880844;76;21107;-72
2021/05/24 04:42:58;;;;;;;2.08;1.05;;;7.30;99.90;;;;;;1880951;76;21079;-73
2021/05/24 04:45:24;;;;;;;2.12;1.02;;;7.40;99.90;;;;;;1880913;76;21497;-72
2021/05/24 04:47:50;;;;;;;2.20;0.93;;;7.40;99.90;;;;;;1880713;76;21169;-73
2021/05/24 04:50:16;;;;;;;2.65;1.10;;;7.50;99.90;;;;;;1880883;76;21104;-71
2021/05/24 04:52:43;;;;;;;4.15;1.85;;;7.50;99.90;;;;;;1880829;76;21141;-71
2021/05/24 04:55:09;;;;;;;2.72;1.40;;;7.50;99.90;;;;;;1880792;76;21146;-73
2021/05/24 04:57:35;;;;;;;2.58;1.72;;;7.50;99.90;;;;;;1880876;76;21515;-72
2021/05/24 05:00:01;;;;;;;3.08;1.62;;;7.40;99.90;;;;;;1880902;76;21510;-73
2021/05/24 05:02:28;;;;;;;1.75;1.50;;;7.50;99.90;;;;;;1880815;76;21183;-72
2021/05/24 05:04:54;;;;;;;2.15;1.40;;;7.60;99.90;;;;;;1880826;76;21172;-73
2021/05/24 05:07:21;;;;;;;2.30;1.10;;;7.70;99.90;;;;;;1880754;76;21118;-72
2021/05/24 05:09:47;;;;;;;2.05;1.20;;;7.70;99.90;;;;;;1880821;76;21131;-72
2021/05/24 05:12:13;;;;;;;1.27;1.00;;;7.80;99.90;;;;;;1880806;76;21554;-72
2021/05/24 05:14:39;;;;;;;1.62;1.37;;;7.90;99.90;;;;;;1880812;76;21487;-72
2021/05/24 05:17:05;;;;;;;1.40;0.95;;;8.00;99.90;;;;;;1880756;76;21560;-72
2021/05/24 05:19:31;;;;;;;1.20;1.10;;;7.90;99.90;;;;;;1880810;76;21239;-72
2021/05/24 05:21:57;;;;;;;1.30;1.20;;;7.80;99.90;;;;;;1880839;76;21183;-72
2021/05/24 05:24:23;;;;;;;7.62;1.12;;;7.90;99.90;;;;;;1880785;76;21047;-72
2021/05/24 05:26:50;;;;;;;2.58;1.27;;;8.00;99.90;;;;;;1880780;76;21074;-72
2021/05/24 05:29:16;;;;;;;1.35;1.12;;;8.10;99.90;;;;;;1881009;76;21077;-72
2021/05/24 05:31:42;;;;;;;3.60;1.25;;;8.00;99.90;;;;;;1880722;76;21103;-72
2021/05/24 05:34:08;;;;;;;1.90;1.30;;;7.90;99.90;;;;;;1880916;76;21082;-72
2021/05/24 05:36:36;;;;;;;5.90;1.98;;;8.00;99.90;;;;;;1880672;76;21093;-72
2021/05/24 05:39:02;;;;;;;10.95;2.20;;;8.00;99.90;;;;;;1880808;76;21103;-72
2021/05/24 05:41:28;;;;;;;8.53;1.90;;;8.10;99.90;;;;;;1880806;76;21115;-72
2021/05/24 05:43:54;;;;;;;1.65;1.20;;;8.10;99.90;;;;;;1880811;76;21549;-72
2021/05/24 05:46:20;;;;;;;1.87;1.67;;;8.10;99.90;;;;;;1880738;76;21043;-73
2021/05/24 05:48:47;;;;;;;1.80;1.35;;;8.30;99.90;;;;;;1880767;76;21166;-72
2021/05/24 05:51:13;;;;;;;1.32;1.17;;;8.40;99.90;;;;;;1880787;76;21103;-72
2021/05/24 05:53:39;;;;;;;1.72;1.15;;;8.30;99.90;;;;;;1880783;76;21110;-72
2021/05/24 05:56:05;;;;;;;2.25;1.27;;;8.30;99.90;;;;;;1880763;76;21169;-72
2021/05/24 05:58:32;;;;;;;1.40;1.30;;;8.30;99.90;;;;;;1880796;76;21102;-72
2021/05/24 06:01:02;;;;;;;1.40;1.30;;;8.30;99.90;;;;;;1880796;76;21632;-73
2021/05/24 06:03:25;;;;;;;1.32;1.20;;;8.30;99.90;;;;;;1880135;76;21091;-72
2021/05/24 06:05:52;;;;;;;3.02;1.40;;;8.40;99.90;;;;;;1880866;76;21070;-74
2021/05/24 06:08:18;;;;;;;2.20;1.52;;;8.50;99.90;;;;;;1880917;76;21087;-73
2021/05/24 06:10:44;;;;;;;3.00;1.55;;;8.50;99.90;;;;;;1880727;76;21111;-72
2021/05/24 06:13:10;;;;;;;3.15;1.72;;;8.50;99.90;;;;;;1880913;76;21090;-73
2021/05/24 06:15:36;;;;;;;3.10;1.70;;;8.60;99.90;;;;;;1880835;76;21503;-72
2021/05/24 06:18:02;;;;;;;2.37;1.65;;;8.60;99.90;;;;;;1880899;76;21520;-73
2021/05/24 06:20:28;;;;;;;3.12;1.37;;;8.60;99.90;;;;;;1880817;76;21546;-72
2021/05/24 06:22:54;;;;;;;2.47;1.55;;;8.80;99.90;;;;;;1880795;76;21173;-73
2021/05/24 06:25:21;;;;;;;3.20;1.57;;;9.00;99.90;;;;;;1880783;76;21107;-72
2021/05/24 06:27:47;;;;;;;4.67;1.70;;;9.20;99.90;;;;;;1880753;76;21103;-72
2021/05/24 06:30:13;;;;;;;1.77;1.42;;;9.30;99.90;;;;;;1880652;76;21060;-72
2021/05/24 06:32:39;;;;;;;4.12;1.50;;;9.20;99.90;;;;;;1880845;76;21071;-73
2021/05/24 06:35:05;;;;;;;2.35;1.57;;;9.30;99.90;;;;;;1880734;76;21082;-74
2021/05/24 06:37:31;;;;;;;5.00;1.32;;;9.50;99.90;;;;;;1880783;76;21136;-74
2021/05/24 06:39:57;;;;;;;4.25;1.55;;;9.50;99.90;;;;;;1880858;76;21191;-73
2021/05/24 06:42:24;;;;;;;3.42;1.80;;;9.70;99.90;;;;;;1880839;76;21075;-74
2021/05/24 06:44:51;;;;;;;4.87;1.92;;;9.70;99.90;;;;;;1880766;76;21176;-73
2021/05/24 06:47:17;;;;;;;5.08;1.45;;;9.80;99.90;;;;;;1880868;76;21114;-71
2021/05/24 06:49:43;;;;;;;2.45;1.65;;;9.90;99.90;;;;;;1880670;76;21100;-71
2021/05/24 06:52:09;;;;;;;10.53;1.47;;;10.00;99.90;;;;;;1880828;76;21086;-72
2021/05/24 06:54:39;;;;;;;3.35;1.30;;;10.10;99.90;;;;;;1880670;76;21110;-72
2021/05/24 06:57:04;;;;;;;5.75;1.10;;;10.30;99.90;;;;;;1880199;76;21098;-70
2021/05/24 06:59:30;;;;;;;2.15;1.47;;;10.60;99.90;;;;;;1880890;76;21502;-71
2021/05/24 07:01:56;;;;;;;3.45;1.32;;;10.50;99.90;;;;;;1880691;76;21071;-71
2021/05/24 07:04:22;;;;;;;2.47;1.55;;;10.40;99.90;;;;;;1880850;76;21078;-72
2021/05/24 07:06:48;;;;;;;1.57;1.30;;;10.50;99.90;;;;;;1880629;76;21111;-72
2021/05/24 07:09:14;;;;;;;1.70;1.60;;;10.50;99.90;;;;;;1880926;76;21082;-74
2021/05/24 07:11:41;;;;;;;3.83;1.37;;;10.60;99.90;;;;;;1880637;76;21100;-84
2021/05/24 07:14:07;;;;;;;1.45;1.32;;;10.60;99.90;;;;;;1880642;76;21044;-74
2021/05/24 07:16:33;;;;;;;3.85;1.37;;;10.70;99.90;;;;;;1880777;76;21023;-70
2021/05/24 07:18:59;;;;;;;1.72;1.40;;;11.10;99.90;;;;;;1880627;76;21099;-73
2021/05/24 07:21:25;;;;;;;3.15;1.47;;;11.20;99.90;;;;;;1881011;76;21140;-75
2021/05/24 07:23:51;;;;;;;3.20;1.50;;;11.40;99.90;;;;;;1880714;76;21169;-74
2021/05/24 07:26:17;;;;;;;7.05;1.60;;;11.30;99.90;;;;;;1880780;76;21114;-74
2021/05/24 07:28:44;;;;;;;1.42;0.95;;;11.60;99.90;;;;;;1880758;76;21074;-74
2021/05/24 07:31:10;;;;;;;1.17;1.10;;;11.60;99.90;;;;;;1880693;76;21107;-74
2021/05/24 07:33:36;;;;;;;2.40;1.20;;;11.60;99.90;;;;;;1880691;76;21145;-74
2021/05/24 07:36:02;;;;;;;5.78;1.20;;;11.70;99.90;;;;;;1880680;76;21136;-74
2021/05/24 07:38:28;;;;;;;0.98;0.93;;;11.80;99.90;;;;;;1880639;76;21079;-74
2021/05/24 07:40:54;;;;;;;2.60;1.25;;;12.20;99.90;;;;;;1880698;76;21144;-74
2021/05/24 07:43:20;;;;;;;3.80;0.90;;;12.30;99.90;;;;;;1880765;76;21561;-75
2021/05/24 07:45:46;;;;;;;1.15;1.00;;;12.50;99.90;;;;;;1880614;76;21566;-75
2021/05/24 07:48:13;;;;;;;1.22;0.98;;;12.50;99.90;;;;;;1880643;76;21446;-74
2021/05/24 07:50:39;;;;;;;4.08;1.25;;;12.50;99.90;;;;;;1880936;76;21510;-75
2021/05/24 07:53:05;;;;;;;2.00;1.17;;;12.70;99.90;;;;;;1880705;76;21554;-75
2021/05/24 07:55:31;;;;;;;0.75;0.75;;;12.90;99.90;;;;;;1880899;76;21047;-77
2021/05/24 07:57:57;;;;;;;2.50;1.00;;;13.40;99.90;;;;;;1880733;76;21078;-79
2021/05/24 08:00:25;;;;;;;7.25;1.02;;;13.60;99.90;;;;;;1880889;76;21070;-80
2021/05/24 08:02:51;;;;;;;1.32;0.90;;;13.30;99.90;;;;;;1880829;76;21118;-79
2021/05/24 08:05:17;;;;;;;5.08;0.95;;;13.00;99.90;;;;;;1880947;76;21786;-79
2021/05/24 08:07:43;;;;;;;2.27;0.95;;;12.90;99.90;;;;;;1880740;76;21113;-80
2021/05/24 08:10:10;;;;;;;1.45;0.90;;;13.30;99.90;;;;;;1881017;76;21074;-79
2021/05/24 08:12:40;;;;;;;1.45;1.02;;;13.60;99.90;;;;;;1880966;76;21121;-77
2021/05/24 08:15:04;;;;;;;1.25;0.80;;;13.90;99.90;;;;;;1880201;76;21169;-77
2021/05/24 08:17:30;;;;;;;2.85;1.10;;;13.90;99.90;;;;;;1881061;76;21079;-77
2021/05/24 08:19:56;;;;;;;3.30;0.80;;;14.00;99.90;;;;;;1881040;76;21074;-76
2021/05/24 08:22:22;;;;;;;2.08;0.95;;;13.90;99.90;;;;;;1881042;76;21070;-77
2021/05/24 08:24:48;;;;;;;0.90;0.80;;;13.80;99.90;;;;;;1884578;75;21125;-76
2021/05/24 08:27:14;;;;;;;1.52;0.90;;;14.10;99.90;;;;;;1881106;76;21059;-76
2021/05/24 08:29:40;;;;;;;2.30;0.95;;;14.60;99.90;;;;;;1881092;76;21074;-77
2021/05/24 08:32:06;;;;;;;1.15;0.80;;;14.70;99.90;;;;;;1881014;76;21136;-75
2021/05/24 08:34:33;;;;;;;4.37;0.70;;;14.70;99.90;;;;;;1880750;76;21099;-79
2021/05/24 08:36:59;;;;;;;0.93;0.80;;;14.70;99.90;;;;;;1880874;76;21054;-77
2021/05/24 08:39:25;;;;;;;2.27;0.80;;;14.40;99.90;;;;;;1880820;76;21074;-77
2021/05/24 08:41:51;;;;;;;0.80;0.68;;;14.00;99.90;;;;;;1880922;76;21152;-78
2021/05/24 08:44:17;;;;;;;1.55;0.95;;;14.30;99.90;;;;;;1880706;76;21200;-78
2021/05/24 08:46:43;;;;;;;2.58;0.90;;;14.30;99.90;;;;;;1880700;76;21136;-78
2021/05/24 08:49:09;;;;;;;2.35;0.90;;;14.40;99.90;;;;;;1880714;76;21103;-75
2021/05/24 08:51:35;;;;;;;3.37;0.93;;;14.80;99.90;;;;;;1880898;76;21082;-74
2021/05/24 08:54:02;;;;;;;2.67;1.35;;;14.80;99.90;;;;;;1880764;76;21107;-75
2021/05/24 08:56:28;;;;;;;0.80;0.78;;;14.70;99.90;;;;;;1880851;76;21175;-74
2021/05/24 08:58:54;;;;;;;3.77;1.12;;;14.60;99.90;;;;;;1880716;76;21102;-72
2021/05/24 09:01:20;;;;;;;2.25;1.05;;;14.80;99.90;;;;;;1880740;76;21117;-73
2021/05/24 09:03:48;;;;;;;0.78;0.70;;;15.00;99.90;;;;;;1880839;76;21136;-74
2021/05/24 09:06:14;;;;;;;1.57;1.00;;;15.40;99.90;;;;;;1880726;76;21084;-74
2021/05/24 09:08:40;;;;;;;3.15;0.98;;;15.50;99.90;;;;;;1880967;76;21047;-75
2021/05/24 09:11:09;;;;;;;1.00;0.90;;;15.60;99.90;;;;;;1880752;76;21099;-75
2021/05/24 09:13:38;;;;;;;0.80;0.70;;;16.10;99.90;;;;;;1880577;76;21518;-75
2021/05/24 09:16:02;;;;;;;1.32;0.68;;;16.30;99.90;;;;;;1880209;76;21103;-76
2021/05/24 09:18:32;;;;;;;1.27;0.80;;;16.60;99.90;;;;;;1880872;76;21227;-74
2021/05/24 09:20:56;;;;;;;0.62;0.50;;;16.40;99.90;;;;;;1880385;76;21162;-75
2021/05/24 09:23:22;;;;;;;1.20;0.60;;;16.40;99.90;;;;;;1880932;76;21124;-75
2021/05/24 09:25:48;;;;;;;1.65;0.70;;;16.60;99.90;;;;;;1881092;76;21152;-75
2021/05/24 09:28:14;;;;;;;0.85;0.57;;;16.60;99.90;;;;;;1881308;76;21151;-75
2021/05/24 09:30:43;;;;;;;0.78;0.78;;;17.10;99.90;;;;;;1881439;76;21447;-74
2021/05/24 09:33:10;;;;;;;3.42;1.05;;;17.40;99.90;;;;;;1881545;76;21074;-74
2021/05/24 09:35:36;;;;;;;1.25;0.78;;;17.50;99.90;;;;;;1881972;76;21129;-74
2021/05/24 09:38:02;;;;;;;1.65;0.70;;;17.50;99.90;;;;;;1883391;76;21109;-70
2021/05/24 09:40:28;;;;;;;2.62;0.65;;;17.70;99.90;;;;;;1882367;76;21089;-70
2021/05/24 09:42:54;;;;;;;0.85;0.65;;;17.00;99.90;;;;;;1882065;76;21190;-71
2021/05/24 09:45:21;;;;;;;1.30;0.80;;;17.30;99.90;;;;;;1880996;76;21121;-72
2021/05/24 09:47:49;;;;;;;0.90;0.68;;;17.10;99.90;;;;;;1880669;76;21122;-72
2021/05/24 09:50:15;;;;;;;0.93;0.57;;;17.50;99.90;;;;;;1880608;76;21070;-73
2021/05/24 09:52:41;;;;;;;0.85;0.57;;;17.60;99.90;;;;;;1880788;76;21094;-73
2021/05/24 09:55:08;;;;;;;1.67;0.50;;;18.00;99.90;;;;;;1880552;76;21364;-73
2021/05/24 09:57:34;;;;;;;0.90;0.70;;;18.20;99.90;;;;;;1880748;76;21156;-73
2021/05/24 10:00:01;;;;;;;1.25;0.60;;;18.00;99.90;;;;;;1880875;76;21443;-73
2021/05/24 10:02:27;;;;;;;1.40;0.65;;;18.20;99.90;;;;;;1880792;76;21494;-72
2021/05/24 10:04:53;;;;;;;0.85;0.50;;;18.20;99.90;;;;;;1880684;76;21495;-72
2021/05/24 10:07:19;;;;;;;1.22;0.80;;;18.10;99.90;;;;;;1880737;76;21518;-72
2021/05/24 10:09:46;;;;;;;0.50;0.50;;;18.00;99.90;;;;;;1880648;76;21139;-72
2021/05/24 10:12:16;;;;;;;0.65;0.60;;;18.10;99.90;;;;;;1880705;76;21136;-72
2021/05/24 10:14:41;;;;;;;1.10;0.50;;;18.20;99.90;;;;;;1880308;76;21099;-72
2021/05/24 10:17:07;;;;;;;1.37;0.62;;;18.10;99.90;;;;;;1880916;76;21079;-72
2021/05/24 10:19:33;;;;;;;1.00;0.60;;;18.10;99.90;;;;;;1881132;76;21071;-73
2021/05/24 10:21:59;;;;;;;0.78;0.30;;;18.30;99.90;;;;;;1881154;76;21069;-72
2021/05/24 10:24:25;;;;;;;1.25;0.37;;;18.10;99.90;;;;;;1881154;76;21539;-72
2021/05/24 10:26:52;;;;;;;1.65;0.60;;;18.10;99.90;;;;;;1881210;76;21055;-72
2021/05/24 10:29:18;;;;;;;6.55;1.00;;;17.90;99.90;;;;;;1881515;76;21574;-70
2021/05/24 10:31:45;;;;;;;1.70;0.35;;;18.20;99.90;;;;;;1882451;76;21075;-72
2021/05/24 10:34:11;;;;;;;2.52;0.93;;;18.00;99.90;;;;;;1880904;76;21082;-72
2021/05/24 10:36:37;;;;;;;2.17;0.70;;;18.00;99.90;;;;;;1880723;76;21163;-72
2021/05/24 10:39:04;;;;;;;1.32;0.68;;;18.10;99.90;;;;;;1880941;76;21027;-72
2021/05/24 10:41:30;;;;;;;2.05;0.53;;;18.40;99.90;;;;;;1880881;76;21050;-72
2021/05/24 10:43:57;;;;;;;1.57;0.60;;;18.50;99.90;;;;;;1880746;76;21062;-73
2021/05/24 10:46:23;;;;;;;0.78;0.50;;;18.70;99.90;;;;;;1880499;75;21085;-74
2021/05/24 10:48:49;;;;;;;1.42;0.72;;;18.70;99.90;;;;;;1880436;76;21087;-73
2021/05/24 10:51:15;;;;;;;1.50;0.60;;;18.80;99.90;;;;;;1880662;76;21144;-72
2021/05/24 10:53:42;;;;;;;0.35;0.30;;;18.70;99.90;;;;;;1880500;76;21043;-71
2021/05/24 10:56:08;;;;;;;0.78;0.60;;;18.90;99.90;;;;;;1880571;76;21183;-72
2021/05/24 10:58:34;;;;;;;0.93;0.50;;;18.80;99.90;;;;;;1880527;76;21140;-71
2021/05/24 11:01:01;;;;;;;2.02;1.02;;;18.80;99.90;;;;;;1880467;76;21102;-72
2021/05/24 11:03:28;;;;;;;2.83;0.70;;;18.20;99.90;;;;;;1880625;76;21200;-71
2021/05/24 11:05:54;;;;;;;2.10;0.62;;;18.30;99.90;;;;;;1880656;76;21055;-71
2021/05/24 11:08:20;;;;;;;1.30;0.60;;;18.30;99.90;;;;;;1880478;76;21074;-71
2021/05/24 11:10:48;;;;;;;3.05;0.75;;;18.30;99.90;;;;;;1880563;76;21058;-71
2021/05/24 11:13:14;;;;;;;1.45;0.50;;;18.00;99.90;;;;;;1880468;76;21090;-72
2021/05/24 11:15:40;;;;;;;3.58;0.90;;;18.10;99.90;;;;;;1880557;76;21078;-72
2021/05/24 11:18:06;;;;;;;0.50;0.50;;;18.10;99.90;;;;;;1880509;76;21082;-73
2021/05/24 11:20:32;;;;;;;1.75;0.80;;;18.20;99.90;;;;;;1880533;76;21144;-70
2021/05/24 11:22:59;;;;;;;0.68;0.60;;;18.10;99.90;;;;;;1880742;76;21509;-71
2021/05/24 11:28:09;;;;;;;1.32;0.57;;;18.70;99.90;;;;;;1880506;76;21587;-71
2021/05/24 11:30:35;;;;;;;3.05;0.40;;;18.80;99.90;;;;;;1880571;76;21494;-71
2021/05/24 11:33:01;;;;;;;2.52;0.60;;;19.40;99.90;;;;;;1880689;76;21540;-70
2021/05/24 11:35:27;;;;;;;1.20;0.60;;;19.30;99.90;;;;;;1880576;76;21493;-72
2021/05/24 11:37:53;;;;;;;0.55;0.42;;;19.10;99.90;;;;;;1880588;76;21556;-71
2021/05/24 11:40:19;;;;;;;3.02;0.68;;;19.10;99.90;;;;;;1880506;76;21514;-72
2021/05/24 11:42:47;;;;;;;0.95;0.60;;;19.10;99.90;;;;;;1880695;76;21538;-71
2021/05/24 11:45:13;;;;;;;0.50;0.50;;;19.50;99.90;;;;;;1880634;76;21090;-71
2021/05/24 11:47:40;;;;;;;0.62;0.50;;;19.60;99.90;;;;;;1880779;76;21071;-72
2021/05/24 11:50:06;;;;;;;0.93;0.57;;;19.70;99.90;;;;;;1880726;76;21219;-72
2021/05/24 11:52:33;;;;;;;1.05;0.60;;;19.90;99.90;;;;;;1880745;76;21217;-72
2021/05/24 11:54:59;;;;;;;1.45;0.60;;;20.30;99.90;;;;;;1880678;76;21165;-72
2021/05/24 11:57:25;;;;;;;1.77;0.60;;;20.50;99.90;;;;;;1880596;76;21094;-71
2021/05/24 11:59:51;;;;;;;0.68;0.47;;;20.20;99.90;;;;;;1880791;76;21066;-72
2021/05/24 12:02:19;;;;;;;1.10;0.60;;;20.20;99.90;;;;;;1880718;76;21083;-71
2021/05/24 12:04:45;;;;;;;0.70;0.60;;;20.30;99.90;;;;;;1880516;76;21107;-73
2021/05/24 12:07:13;;;;;;;0.53;0.40;;;20.50;99.90;;;;;;1880661;76;21059;-71
2021/05/24 12:09:39;;;;;;;0.37;0.37;;;20.60;99.90;;;;;;1880604;76;21571;-72
2021/05/24 12:12:05;;;;;;;0.45;0.20;;;20.80;99.90;;;;;;1880621;76;21514;-72
2021/05/24 12:14:34;;;;;;;0.35;0.35;;;21.00;99.90;;;;;;1880734;76;21498;-72
2021/05/24 12:16:59;;;;;;;1.02;0.93;;;21.10;99.90;;;;;;1880529;76;21113;-73
2021/05/24 12:19:26;;;;;;;1.12;0.57;;;21.40;99.90;;;;;;1880749;76;21078;-72
2021/05/24 12:21:52;;;;;;;1.17;0.30;;;21.20;99.90;;;;;;1880640;76;21098;-72
2021/05/24 12:24:19;;;;;;;0.90;0.57;;;21.30;99.90;;;;;;1880792;76;21102;-72
2021/05/24 12:26:45;;;;;;;1.17;0.40;;;21.10;99.90;;;;;;1880631;76;21078;-72
2021/05/24 12:29:11;;;;;;;1.75;0.50;;;21.00;99.90;;;;;;1880660;76;21044;-73
2021/05/24 12:31:37;;;;;;;0.95;0.50;;;20.80;99.90;;;;;;1880640;76;21078;-71
2021/05/24 12:34:03;;;;;;;1.50;0.40;;;20.90;99.90;;;;;;1880639;76;21082;-72
2021/05/24 12:36:42;;;;;;;3.12;0.95;;;20.80;99.90;;;;;;1880661;76;21156;-72
2021/05/24 12:39:04;;;;;;;0.40;0.40;;;20.50;99.90;;;;;;1878736;76;21451;-71
2021/05/24 12:41:28;;;;;;;1.67;0.40;;;20.40;99.90;;;;;;1880056;76;21130;-71
2021/05/24 12:43:54;;;;;;;1.27;0.60;;;20.30;99.90;;;;;;1880569;76;21074;-72
2021/05/24 12:46:20;;;;;;;0.30;0.30;;;20.30;99.90;;;;;;1880727;76;21078;-72
2021/05/24 12:48:51;;;;;;;0.30;0.30;;;20.20;99.90;;;;;;1880632;76;21525;-72
2021/05/24 12:51:14;;;;;;;2.47;0.60;;;20.30;99.90;;;;;;1880077;76;21051;-72